createdAt,value
2022-12-08T00:00:40.526Z,4.46
2022-12-08T00:02:45.682Z,4.44
2022-12-08T00:05:03.156Z,4.38
2022-12-08T00:07:32.179Z,4.28
2022-12-08T00:09:39.778Z,4.13
2022-12-08T00:11:44.787Z,4.14
2022-12-08T00:13:52.508Z,4.15
2022-12-08T00:16:03.068Z,4.18
2022-12-08T00:18:08.854Z,4.21
2022-12-08T00:20:14.634Z,4.22
2022-12-08T00:22:19.460Z,4.25
2022-12-08T00:24:25.622Z,4.26
2022-12-08T00:26:30.436Z,4.29
2022-12-08T00:28:35.497Z,4.28
2022-12-08T00:30:45.875Z,4.30
2022-12-08T00:32:50.711Z,4.30
2022-12-08T00:34:57.723Z,4.28
2022-12-08T00:37:02.611Z,4.28
2022-12-08T00:39:07.383Z,4.26
2022-12-08T00:41:16.005Z,4.25
2022-12-08T00:43:20.821Z,4.25
2022-12-08T00:45:26.129Z,4.21
2022-12-08T00:47:33.499Z,4.17
2022-12-08T00:49:38.393Z,4.13
2022-12-08T00:51:46.817Z,4.09
2022-12-08T00:53:51.738Z,4.08
2022-12-08T00:55:56.755Z,4.04
2022-12-08T00:58:01.588Z,4.04
2022-12-08T01:00:07.547Z,4.01
2022-12-08T01:02:14.183Z,4.01
2022-12-08T01:04:22.707Z,4.02
2022-12-08T01:06:27.520Z,4.02
2022-12-08T01:08:32.748Z,4.03
2022-12-08T01:10:38.512Z,4.02
2022-12-08T01:12:43.420Z,4.01
2022-12-08T01:14:48.236Z,3.97
2022-12-08T01:16:53.256Z,3.94
2022-12-08T01:19:02.189Z,3.86
2022-12-08T01:21:10.631Z,3.81
2022-12-08T01:23:15.573Z,3.81
2022-12-08T01:25:20.575Z,3.81
2022-12-08T01:27:25.350Z,3.80
2022-12-08T01:29:30.451Z,3.81
2022-12-08T01:31:35.416Z,3.81
2022-12-08T01:33:40.252Z,3.78
2022-12-08T01:35:45.102Z,3.80
2022-12-08T01:37:53.281Z,3.81
2022-12-08T01:39:58.112Z,3.81
2022-12-08T01:42:02.899Z,3.82
2022-12-08T01:44:42.660Z,3.79
2022-12-08T01:46:50.042Z,3.76
2022-12-08T01:48:58.907Z,3.77
2022-12-08T01:51:03.815Z,3.73
2022-12-08T01:53:16.376Z,3.65
2022-12-08T01:55:26.048Z,3.65
2022-12-08T01:57:33.772Z,3.68
2022-12-08T01:59:44.275Z,3.68
2022-12-08T02:01:49.211Z,3.70
2022-12-08T02:03:59.125Z,3.67
2022-12-08T02:06:04.943Z,3.62
2022-12-08T02:08:15.719Z,3.59
2022-12-08T02:10:22.579Z,3.56
2022-12-08T02:12:27.654Z,3.55
2022-12-08T02:14:32.424Z,3.52
2022-12-08T02:16:43.909Z,3.49
2022-12-08T02:19:29.592Z,3.46
2022-12-08T02:21:32.109Z,3.40
2022-12-08T02:23:50.604Z,3.40
2022-12-08T02:26:24.263Z,3.37
2022-12-08T02:28:50.880Z,3.33
2022-12-08T02:31:08.491Z,3.29
2022-12-08T02:33:58.293Z,3.28
2022-12-08T02:36:13.656Z,3.24
2022-12-08T02:38:29.700Z,3.22
2022-12-08T02:40:41.681Z,3.20
2022-12-08T02:42:50.181Z,3.17
2022-12-08T02:45:00.362Z,3.15
2022-12-08T02:47:11.603Z,3.14
2022-12-08T02:49:16.848Z,3.15
2022-12-08T02:51:29.785Z,3.12
2022-12-08T02:53:37.580Z,3.11
2022-12-08T02:55:54.265Z,3.13
2022-12-08T02:58:32.685Z,3.12
2022-12-08T03:00:48.132Z,3.13
2022-12-08T03:03:08.255Z,3.23
2022-12-08T03:05:25.368Z,3.31
2022-12-08T03:07:38.206Z,3.38
2022-12-08T03:09:47.548Z,3.44
2022-12-08T03:12:01.535Z,3.50
2022-12-08T03:14:10.111Z,3.56
2022-12-08T03:16:19.490Z,3.60
2022-12-08T03:18:30.494Z,3.65
2022-12-08T03:20:37.421Z,3.68
2022-12-08T03:22:47.112Z,3.69
2022-12-08T03:24:52.935Z,3.70
2022-12-08T03:27:01.586Z,3.72
2022-12-08T03:29:07.254Z,3.73
2022-12-08T03:31:15.906Z,3.75
2022-12-08T03:33:25.947Z,3.76
2022-12-08T03:35:36.173Z,3.75
2022-12-08T03:37:44.482Z,3.77
2022-12-08T03:39:49.315Z,3.77
2022-12-08T03:41:54.123Z,3.80
2022-12-08T03:44:01.146Z,3.81
2022-12-08T03:46:06.046Z,3.84
2022-12-08T03:48:10.984Z,3.84
2022-12-08T03:50:16.012Z,3.83
2022-12-08T03:52:20.939Z,3.82
2022-12-08T03:54:28.312Z,3.84
2022-12-08T03:56:35.451Z,3.79
2022-12-08T03:58:40.209Z,3.78
2022-12-08T04:00:45.068Z,3.77
2022-12-08T04:02:49.860Z,3.75
2022-12-08T04:04:54.712Z,3.73
2022-12-08T04:06:59.931Z,3.74
2022-12-08T04:09:04.437Z,3.73
2022-12-08T04:11:12.057Z,3.72
2022-12-08T04:13:16.845Z,3.69
2022-12-08T04:15:21.619Z,3.68
2022-12-08T04:17:26.452Z,3.66
2022-12-08T04:19:31.418Z,3.61
2022-12-08T04:21:36.277Z,3.56
2022-12-08T04:23:41.273Z,3.51
2022-12-08T04:25:46.072Z,3.49
2022-12-08T04:27:53.404Z,3.45
2022-12-08T04:29:58.209Z,3.44
2022-12-08T04:32:02.959Z,3.45
2022-12-08T04:34:07.750Z,3.44
2022-12-08T04:36:12.667Z,3.44
2022-12-08T04:38:17.683Z,3.47
2022-12-08T04:40:22.666Z,3.49
2022-12-08T04:42:27.467Z,3.53
2022-12-08T04:44:35.369Z,3.56
2022-12-08T04:46:43.330Z,3.56
2022-12-08T04:48:48.847Z,3.60
2022-12-08T04:50:53.398Z,3.55
2022-12-08T04:52:58.481Z,3.56
2022-12-08T04:55:03.365Z,3.56
2022-12-08T04:57:08.168Z,3.61
2022-12-08T04:59:12.972Z,3.66
2022-12-08T05:01:20.344Z,3.69
2022-12-08T05:03:28.504Z,3.71
2022-12-08T05:05:33.582Z,3.72
2022-12-08T05:07:38.436Z,3.75
2022-12-08T05:09:43.373Z,3.75
2022-12-08T05:11:51.042Z,3.77
2022-12-08T05:13:55.775Z,3.79
2022-12-08T05:16:05.962Z,3.75
2022-12-08T05:18:13.711Z,3.73
2022-12-08T05:20:18.574Z,3.71
2022-12-08T05:22:23.468Z,3.74
2022-12-08T05:24:28.397Z,3.75
2022-12-08T05:26:33.237Z,3.75
2022-12-08T05:28:42.712Z,3.77
2022-12-08T05:30:48.196Z,3.78
2022-12-08T05:32:53.079Z,3.80
2022-12-08T05:35:01.126Z,3.81
2022-12-08T05:37:05.916Z,3.80
2022-12-08T05:39:11.753Z,3.78
2022-12-08T05:41:18.386Z,3.80
2022-12-08T05:43:23.192Z,3.79
2022-12-08T05:45:28.113Z,3.81
2022-12-08T05:47:36.055Z,3.82
2022-12-08T05:49:41.150Z,3.83
2022-12-08T05:51:48.504Z,3.85
2022-12-08T05:53:55.134Z,3.86
2022-12-08T05:56:00.366Z,3.86
2022-12-08T05:58:08.031Z,3.85
2022-12-08T06:00:14.151Z,3.79
2022-12-08T06:02:18.977Z,3.82
2022-12-08T06:04:23.834Z,3.80
2022-12-08T06:06:29.502Z,3.81
2022-12-08T06:08:36.926Z,3.80
2022-12-08T06:10:42.743Z,3.80
2022-12-08T06:12:47.518Z,3.80
2022-12-08T06:14:52.400Z,3.80
2022-12-08T06:16:57.214Z,3.80
2022-12-08T06:19:02.120Z,3.82
2022-12-08T06:21:07.867Z,3.85
2022-12-08T06:23:12.708Z,3.82
2022-12-08T06:25:20.111Z,3.81
2022-12-08T06:27:24.890Z,3.80
2022-12-08T06:29:29.737Z,3.82
2022-12-08T06:31:34.587Z,3.81
2022-12-08T06:33:40.293Z,3.82
2022-12-08T06:35:45.104Z,3.77
2022-12-08T06:37:51.719Z,3.76
2022-12-08T06:39:56.865Z,3.78
2022-12-08T06:42:16.497Z,3.76
2022-12-08T06:44:21.284Z,3.68
2022-12-08T06:46:26.267Z,3.71
2022-12-08T06:48:30.877Z,3.70
2022-12-08T06:50:35.907Z,3.71
2022-12-08T06:52:49.266Z,3.69
2022-12-08T06:54:57.925Z,3.75
2022-12-08T06:57:05.367Z,3.76
2022-12-08T06:59:10.454Z,3.78
2022-12-08T07:01:15.689Z,3.74
2022-12-08T07:03:20.703Z,3.71
2022-12-08T07:05:25.465Z,3.73
2022-12-08T07:07:30.240Z,3.71
2022-12-08T07:09:35.069Z,3.74
2022-12-08T07:11:41.772Z,3.74
2022-12-08T07:13:49.148Z,3.76
2022-12-08T07:15:54.016Z,3.76
2022-12-08T07:18:00.225Z,3.79
2022-12-08T07:20:06.367Z,3.82
2022-12-08T07:22:11.549Z,3.89
2022-12-08T07:24:17.120Z,3.93
2022-12-08T07:26:21.943Z,3.91
2022-12-08T07:28:26.699Z,3.83
2022-12-08T07:30:34.193Z,3.86
2022-12-08T07:32:39.737Z,3.88
2022-12-08T07:34:47.071Z,3.94
2022-12-08T07:36:52.104Z,3.93
2022-12-08T07:38:56.968Z,3.93
2022-12-08T07:41:01.997Z,3.96
2022-12-08T07:43:06.811Z,3.93
2022-12-08T07:45:12.661Z,3.95
2022-12-08T07:47:20.098Z,3.98
2022-12-08T07:49:25.057Z,3.97
2022-12-08T07:51:29.885Z,3.94
2022-12-08T07:53:35.349Z,3.93
2022-12-08T07:55:42.309Z,3.96
2022-12-08T07:57:47.305Z,4.01
2022-12-08T07:59:52.129Z,4.04
2022-12-08T08:02:22.346Z,4.08
2022-12-08T08:04:24.553Z,4.08
2022-12-08T08:06:29.386Z,4.07
2022-12-08T08:08:34.467Z,4.07
2022-12-08T08:10:39.086Z,4.06
2022-12-08T08:12:44.061Z,4.07
2022-12-08T08:14:48.908Z,4.05
2022-12-08T08:16:53.956Z,4.02
2022-12-08T08:18:58.833Z,4.04
2022-12-08T08:21:43.053Z,4.01
2022-12-08T08:23:31.753Z,4.01
2022-12-08T08:25:37.730Z,4.04
2022-12-08T08:27:42.725Z,4.09
2022-12-08T08:29:48.759Z,4.14
2022-12-08T08:31:53.562Z,4.16
2022-12-08T08:34:04.961Z,4.20
2022-12-08T08:36:13.493Z,4.22
2022-12-08T08:38:19.506Z,4.20
2022-12-08T08:40:24.344Z,4.22
2022-12-08T08:42:29.177Z,4.24
2022-12-08T08:44:33.946Z,4.28
2022-12-08T08:46:38.884Z,4.26
2022-12-08T08:48:43.720Z,4.29
2022-12-08T08:50:49.677Z,4.34
2022-12-08T08:52:57.101Z,4.39
2022-12-08T08:55:03.209Z,4.37
2022-12-08T08:57:08.031Z,4.37
2022-12-08T08:59:13.362Z,4.37
2022-12-08T09:01:20.080Z,4.43
2022-12-08T09:03:24.852Z,4.48
2022-12-08T09:05:29.722Z,4.49
2022-12-08T09:07:35.154Z,4.52
2022-12-08T09:09:43.427Z,4.48
2022-12-08T09:11:49.433Z,4.49
2022-12-08T09:13:57.644Z,4.49
2022-12-08T09:16:04.670Z,4.53
2022-12-08T09:18:09.548Z,4.58
2022-12-08T09:20:15.904Z,4.62
2022-12-08T09:22:20.641Z,4.66
2022-12-08T09:24:25.726Z,4.67
2022-12-08T09:26:33.120Z,4.66
2022-12-08T09:28:38.402Z,4.65
2022-12-08T09:30:43.413Z,4.67
2022-12-08T09:32:49.536Z,4.71
2022-12-08T09:34:54.359Z,4.75
2022-12-08T09:36:59.374Z,4.79
2022-12-08T09:39:04.181Z,4.83
2022-12-08T09:41:19.596Z,4.90
2022-12-08T09:43:45.826Z,4.91
2022-12-08T09:45:52.406Z,4.90
2022-12-08T09:48:03.689Z,4.88
2022-12-08T09:50:15.651Z,4.90
2022-12-08T09:52:26.509Z,4.93
2022-12-08T09:54:37.135Z,4.91
2022-12-08T09:56:42.499Z,4.88
2022-12-08T09:58:57.423Z,4.87
2022-12-08T10:01:02.844Z,4.86
2022-12-08T10:03:16.697Z,4.86
2022-12-08T10:05:23.994Z,4.88
2022-12-08T10:07:40.807Z,4.92
2022-12-08T10:09:51.613Z,4.97
2022-12-08T10:12:03.551Z,5.01
2022-12-08T10:14:24.260Z,5.03
2022-12-08T10:16:37.049Z,5.08
2022-12-08T10:18:42.056Z,5.10
2022-12-08T10:20:50.257Z,5.12
2022-12-08T10:23:05.049Z,5.11
2022-12-08T10:25:18.328Z,5.09
2022-12-08T10:27:23.858Z,5.10
2022-12-08T10:29:31.315Z,5.16
2022-12-08T10:31:36.162Z,5.20
2022-12-08T10:33:41.096Z,5.22
2022-12-08T10:35:48.493Z,5.33
2022-12-08T10:37:59.902Z,5.30
2022-12-08T10:40:12.646Z,5.28
2022-12-08T10:42:23.702Z,5.33
2022-12-08T10:44:31.617Z,5.37
2022-12-08T10:46:41.144Z,5.44
2022-12-08T10:48:56.951Z,5.49
2022-12-08T10:51:05.467Z,5.50
2022-12-08T10:53:16.038Z,5.44
2022-12-08T10:55:23.184Z,5.47
2022-12-08T10:57:27.932Z,5.54
2022-12-08T10:59:36.552Z,5.48
2022-12-08T11:01:43.277Z,5.51
2022-12-08T11:03:51.780Z,5.40
2022-12-08T11:06:03.988Z,5.49
2022-12-08T11:08:12.160Z,5.57
2022-12-08T11:10:21.712Z,5.64
2022-12-08T11:12:31.507Z,5.74
2022-12-08T11:14:50.224Z,5.79
2022-12-08T11:16:57.770Z,5.85
2022-12-08T11:19:08.340Z,5.97
2022-12-08T11:21:16.167Z,6.01
2022-12-08T11:23:28.174Z,6.06
2022-12-08T11:25:33.353Z,6.03
2022-12-08T11:27:56.854Z,6.15
2022-12-08T11:30:21.453Z,6.25
2022-12-08T11:32:31.862Z,6.26
2022-12-08T11:34:46.719Z,6.28
2022-12-08T11:36:57.293Z,6.25
2022-12-08T11:39:16.654Z,6.20
2022-12-08T11:41:29.211Z,6.11
2022-12-08T11:43:45.564Z,6.08
2022-12-08T11:45:59.076Z,6.06
2022-12-08T11:48:12.751Z,6.03
2022-12-08T11:50:25.808Z,6.02
2022-12-08T11:52:36.657Z,5.98
2022-12-08T11:54:47.668Z,5.95
2022-12-08T11:56:56.042Z,5.92
2022-12-08T11:59:05.544Z,5.93
2022-12-08T12:01:21.372Z,5.85
2022-12-08T12:03:30.110Z,5.81
2022-12-08T12:08:27.692Z,5.67
2022-12-08T12:10:48.266Z,5.59
2022-12-08T12:13:06.567Z,5.55
2022-12-08T12:15:34.427Z,5.47
2022-12-08T12:17:48.871Z,5.39
2022-12-08T12:19:56.522Z,5.38
2022-12-08T12:22:07.892Z,5.41
2022-12-08T12:24:25.324Z,5.31
2022-12-08T12:26:36.400Z,5.28
2022-12-08T12:28:46.437Z,5.25
2022-12-08T12:31:00.179Z,5.28
2022-12-08T12:33:13.537Z,5.31
2022-12-08T12:35:27.112Z,5.31
2022-12-08T12:37:41.230Z,5.47
2022-12-08T12:39:53.534Z,5.54
2022-12-08T12:42:01.424Z,5.57
2022-12-08T12:44:26.252Z,5.55
2022-12-08T12:46:44.066Z,5.58
2022-12-08T12:48:51.900Z,5.59
2022-12-08T12:50:57.938Z,5.55
2022-12-08T12:53:07.927Z,5.54
2022-12-08T12:55:31.697Z,5.52
2022-12-08T12:57:40.250Z,5.41
2022-12-08T12:59:54.671Z,5.36
2022-12-08T13:02:02.794Z,5.31
2022-12-08T13:04:13.414Z,5.37
2022-12-08T13:06:26.061Z,5.38
2022-12-08T13:08:31.495Z,5.41
2022-12-08T13:10:39.172Z,5.36
2022-12-08T13:12:44.204Z,5.38
2022-12-08T13:14:52.269Z,5.39
2022-12-08T13:16:58.898Z,5.46
2022-12-08T13:19:07.477Z,5.49
2022-12-08T13:21:18.935Z,5.48
2022-12-08T13:23:33.133Z,5.52
2022-12-08T13:25:54.265Z,5.54
2022-12-08T13:27:59.213Z,5.56
2022-12-08T13:30:34.080Z,5.45
2022-12-08T13:35:23.867Z,5.45
2022-12-08T13:37:34.404Z,5.51
2022-12-08T13:39:47.378Z,5.57
2022-12-08T13:41:59.764Z,5.54
2022-12-08T13:45:03.570Z,5.56
2022-12-08T13:50:43.485Z,5.58
2022-12-08T13:59:28.387Z,5.56
2022-12-08T14:01:33.336Z,5.52
2022-12-08T14:04:12.840Z,5.43
2022-12-08T14:06:17.568Z,5.37
2022-12-08T14:08:57.937Z,5.37
2022-12-08T14:11:01.535Z,5.36
2022-12-08T14:13:09.216Z,5.41
2022-12-08T14:15:17.837Z,5.34
2022-12-08T14:17:24.761Z,5.38
2022-12-08T14:19:32.622Z,5.40
2022-12-08T14:21:37.387Z,5.39
2022-12-08T14:23:46.654Z,5.40
2022-12-08T14:25:54.433Z,5.43
2022-12-08T14:28:02.599Z,5.40
2022-12-08T14:30:18.564Z,5.43
2022-12-08T14:32:30.252Z,5.39
2022-12-08T14:34:40.648Z,5.43
2022-12-08T14:36:45.847Z,5.45
2022-12-08T14:38:53.050Z,5.39
2022-12-08T14:41:08.719Z,5.38
2022-12-08T14:43:19.335Z,5.42
2022-12-08T14:45:24.767Z,5.41
2022-12-08T14:47:33.479Z,5.47
2022-12-08T14:49:40.642Z,5.49
2022-12-08T14:51:45.614Z,5.53
2022-12-08T14:53:58.788Z,5.57
2022-12-08T14:56:10.554Z,5.57
2022-12-08T14:58:24.131Z,5.56
2022-12-08T15:00:30.084Z,5.57
2022-12-08T15:02:35.235Z,5.60
2022-12-08T15:04:41.698Z,5.58
2022-12-08T15:06:56.183Z,5.57
2022-12-08T15:09:02.661Z,5.53
2022-12-08T15:11:30.143Z,5.47
2022-12-08T15:13:35.123Z,5.46
2022-12-08T15:15:51.321Z,5.45
2022-12-08T15:18:16.073Z,5.45
2022-12-08T15:20:35.901Z,5.48
2022-12-08T15:22:42.138Z,5.48
2022-12-08T15:24:47.074Z,5.48
2022-12-08T15:26:58.590Z,5.43
2022-12-08T15:29:13.675Z,5.47
2022-12-08T15:31:27.949Z,5.47
2022-12-08T15:33:32.922Z,5.42
2022-12-08T15:35:40.929Z,5.41
2022-12-08T15:37:49.244Z,5.38
2022-12-08T15:39:59.215Z,5.33
2022-12-08T15:42:13.516Z,5.35
2022-12-08T15:44:18.291Z,5.36
2022-12-08T15:46:23.206Z,5.32
2022-12-08T15:48:29.901Z,5.37
2022-12-08T15:50:34.866Z,5.41
2022-12-08T15:52:39.622Z,5.31
2022-12-08T15:54:44.607Z,5.25
2022-12-08T15:57:17.847Z,5.25
2022-12-08T15:59:24.154Z,5.30
2022-12-08T16:01:29.331Z,5.32
2022-12-08T16:06:44.570Z,5.29
2022-12-08T16:13:56.690Z,5.40
2022-12-08T16:16:04.030Z,5.44
2022-12-08T16:18:09.727Z,5.47
2022-12-08T16:20:18.337Z,5.47
2022-12-08T16:24:50.202Z,5.41
2022-12-08T16:29:23.451Z,5.41
2022-12-08T16:31:30.935Z,5.41
2022-12-08T16:33:35.956Z,5.39
2022-12-08T16:35:41.439Z,5.37
2022-12-08T16:37:46.195Z,5.31
2022-12-08T16:39:51.736Z,5.31
2022-12-08T16:42:09.319Z,5.34
2022-12-08T16:44:14.357Z,5.30
2022-12-08T16:46:23.844Z,5.28
2022-12-08T16:48:31.635Z,5.24
2022-12-08T16:50:38.009Z,5.21
2022-12-08T16:52:42.878Z,5.21
2022-12-08T16:54:48.013Z,5.23
2022-12-08T16:56:52.906Z,5.28
2022-12-08T16:58:57.835Z,5.30
2022-12-08T17:01:02.730Z,5.32
2022-12-08T17:03:09.174Z,5.29
2022-12-08T17:05:18.479Z,5.32
2022-12-08T17:07:23.442Z,5.33
2022-12-08T17:09:30.864Z,5.33
2022-12-08T17:11:42.958Z,5.21
2022-12-08T17:13:48.596Z,5.22
2022-12-08T17:15:53.423Z,5.21
2022-12-08T17:17:58.259Z,5.18
2022-12-08T17:20:04.872Z,5.14
2022-12-08T17:22:15.028Z,5.13
2022-12-08T17:24:22.283Z,5.08
2022-12-08T17:26:27.335Z,4.96
2022-12-08T17:28:58.767Z,4.99
2022-12-08T17:30:58.447Z,4.94
2022-12-08T17:33:03.419Z,4.95
2022-12-08T17:35:09.289Z,4.88
2022-12-08T17:37:17.207Z,4.87
2022-12-08T17:39:22.622Z,4.83
2022-12-08T17:41:27.508Z,4.76
2022-12-08T17:43:32.328Z,4.68
2022-12-08T17:45:37.296Z,4.70
2022-12-08T17:47:42.199Z,4.73
2022-12-08T17:49:49.079Z,4.75
2022-12-08T17:51:57.510Z,4.74
2022-12-08T17:54:05.022Z,4.83
2022-12-08T17:56:16.900Z,4.74
2022-12-08T17:58:22.263Z,4.72
2022-12-08T18:00:27.351Z,4.62
2022-12-08T18:02:33.659Z,4.67
2022-12-08T18:04:38.461Z,4.65
2022-12-08T18:06:43.740Z,4.67
2022-12-08T18:08:48.327Z,4.68
2022-12-08T18:10:55.783Z,4.74
2022-12-08T18:13:03.565Z,4.76
2022-12-08T18:15:11.091Z,4.74
2022-12-08T18:17:15.913Z,4.69
2022-12-08T18:19:20.789Z,4.72
2022-12-08T18:21:31.968Z,4.71
2022-12-08T18:23:36.869Z,4.72
2022-12-08T18:25:41.651Z,4.74
2022-12-08T18:27:49.244Z,4.81
2022-12-08T18:29:54.216Z,4.87
2022-12-08T18:32:01.102Z,4.95
2022-12-08T18:34:07.159Z,5.03
2022-12-08T18:36:14.748Z,5.08
2022-12-08T18:38:22.572Z,5.12
2022-12-08T18:40:27.467Z,5.14
2022-12-08T18:42:32.282Z,5.18
2022-12-08T18:44:39.763Z,5.19
2022-12-08T18:46:44.635Z,5.19
2022-12-08T18:48:51.028Z,5.17
2022-12-08T18:50:55.811Z,5.17
2022-12-08T18:53:03.065Z,5.18
2022-12-08T18:55:09.548Z,5.18
2022-12-08T18:57:15.823Z,5.20
2022-12-08T18:59:22.855Z,5.17
2022-12-08T19:01:30.404Z,5.11
2022-12-08T19:03:37.595Z,5.12
2022-12-08T19:05:42.513Z,5.14
2022-12-08T19:07:47.757Z,5.14
2022-12-08T19:09:52.428Z,5.12
2022-12-08T19:11:57.830Z,5.12
2022-12-08T19:14:02.651Z,5.15
2022-12-08T19:16:08.227Z,5.16
2022-12-08T19:18:15.651Z,5.19
2022-12-08T19:20:20.411Z,5.19
2022-12-08T19:22:25.256Z,5.17
2022-12-08T19:24:30.375Z,5.19
2022-12-08T19:26:35.157Z,5.19
2022-12-08T19:28:41.115Z,5.20
2022-12-08T19:30:46.343Z,5.19
2022-12-08T19:32:52.581Z,5.20
2022-12-08T19:35:00.172Z,5.21
2022-12-08T19:37:05.276Z,5.19
2022-12-08T19:39:22.602Z,5.18
2022-12-08T19:41:40.137Z,5.18
2022-12-08T19:43:57.551Z,5.17
2022-12-08T19:46:02.562Z,5.18
2022-12-08T19:48:07.945Z,5.17
2022-12-08T19:50:27.904Z,5.14
2022-12-08T19:52:32.818Z,5.10
2022-12-08T19:54:38.120Z,5.05
2022-12-08T19:56:42.994Z,5.06
2022-12-08T19:58:47.854Z,5.08
2022-12-08T20:00:53.108Z,5.08
2022-12-08T20:02:58.483Z,4.99
2022-12-08T20:05:03.510Z,4.93
2022-12-08T20:07:10.949Z,4.88
2022-12-08T20:09:17.163Z,4.87
2022-12-08T20:11:22.091Z,4.86
2022-12-08T20:13:39.353Z,4.80
2022-12-08T20:15:44.812Z,4.77
2022-12-08T20:17:49.890Z,4.77
2022-12-08T20:19:54.766Z,4.78
2022-12-08T20:22:01.183Z,4.75
2022-12-08T20:24:09.317Z,4.80
2022-12-08T20:26:16.100Z,4.81
2022-12-08T20:28:22.594Z,4.79
2022-12-08T20:30:27.590Z,4.76
2022-12-08T20:32:32.419Z,4.76
2022-12-08T20:34:38.323Z,4.76
2022-12-08T20:36:43.192Z,4.74
2022-12-08T20:38:48.133Z,4.75
2022-12-08T20:40:57.912Z,4.72
2022-12-08T20:43:03.201Z,4.73
2022-12-08T20:45:09.908Z,4.71
2022-12-08T20:47:16.140Z,4.73
2022-12-08T20:49:20.966Z,4.71
2022-12-08T20:51:31.689Z,4.71
2022-12-08T20:53:36.886Z,4.68
2022-12-08T20:55:43.514Z,4.66
2022-12-08T20:57:54.002Z,4.64
2022-12-08T20:59:58.908Z,4.61
2022-12-08T21:02:03.967Z,4.60
2022-12-08T21:04:08.744Z,4.57
2022-12-08T21:06:13.859Z,4.52
2022-12-08T21:08:19.536Z,4.49
2022-12-08T21:10:24.650Z,4.46
2022-12-08T21:12:29.625Z,4.46
2022-12-08T21:14:37.082Z,4.46
2022-12-08T21:16:42.136Z,4.44
2022-12-08T21:18:46.962Z,4.43
2022-12-08T21:20:52.796Z,4.42
2022-12-08T21:23:00.319Z,4.39
2022-12-08T21:25:05.407Z,4.36
2022-12-08T21:27:10.203Z,4.31
2022-12-08T21:29:16.411Z,4.26
2022-12-08T21:31:28.118Z,4.29
2022-12-08T21:33:33.114Z,4.22
2022-12-08T21:35:37.956Z,4.19
2022-12-08T21:37:42.914Z,4.18
2022-12-08T21:39:47.800Z,4.16
2022-12-08T21:42:05.240Z,4.13
2022-12-08T21:44:12.230Z,4.10
2022-12-08T21:46:21.332Z,4.09
2022-12-08T21:48:29.609Z,4.11
2022-12-08T21:50:34.588Z,4.09
2022-12-08T21:52:40.512Z,4.09
2022-12-08T21:54:45.535Z,4.06
2022-12-08T21:56:51.998Z,4.07
2022-12-08T21:58:57.121Z,4.07
2022-12-08T22:01:08.079Z,4.04
2022-12-08T22:03:16.634Z,3.97
2022-12-08T22:05:24.396Z,3.93
2022-12-08T22:07:29.312Z,3.86
2022-12-08T22:09:34.281Z,3.73
2022-12-08T22:11:39.182Z,3.57
2022-12-08T22:13:44.748Z,3.50
2022-12-08T22:15:58.835Z,3.47
2022-12-08T22:18:03.943Z,3.44
2022-12-08T22:20:11.616Z,3.44
2022-12-08T22:22:19.252Z,3.42
2022-12-08T22:24:24.121Z,3.39
2022-12-08T22:26:29.047Z,3.37
2022-12-08T22:28:35.877Z,3.37
2022-12-08T22:30:42.207Z,3.36
2022-12-08T22:32:47.070Z,3.34
2022-12-08T22:34:52.683Z,3.29
2022-12-08T22:37:00.035Z,3.24
2022-12-08T22:39:07.563Z,3.19
2022-12-08T22:41:12.658Z,3.12
2022-12-08T22:43:17.436Z,3.10
2022-12-08T22:45:22.443Z,3.05
2022-12-08T22:47:27.254Z,3.03
2022-12-08T22:49:32.410Z,2.98
2022-12-08T22:51:38.881Z,2.95
2022-12-08T22:53:43.934Z,2.92
2022-12-08T22:55:51.362Z,2.91
2022-12-08T22:57:58.176Z,2.87
2022-12-08T23:00:03.640Z,2.81
2022-12-08T23:02:08.833Z,2.75
2022-12-08T23:04:17.730Z,2.74
2022-12-08T23:06:23.524Z,2.74
2022-12-08T23:08:28.706Z,2.76
2022-12-08T23:10:34.015Z,2.75
2022-12-08T23:12:41.443Z,2.72
2022-12-08T23:14:46.499Z,2.71
2022-12-08T23:16:51.299Z,2.70
2022-12-08T23:18:56.723Z,2.66
2022-12-08T23:21:06.441Z,2.68
2022-12-08T23:23:11.482Z,2.65
2022-12-08T23:25:18.563Z,2.64
2022-12-08T23:27:23.453Z,2.63
2022-12-08T23:29:30.873Z,2.66
2022-12-08T23:31:36.150Z,2.64
2022-12-08T23:33:40.952Z,2.62
2022-12-08T23:35:45.811Z,2.57
2022-12-08T23:37:50.727Z,2.53
2022-12-08T23:39:55.697Z,2.52
2022-12-08T23:42:01.744Z,2.52
2022-12-08T23:44:06.694Z,2.50
2022-12-08T23:46:14.452Z,2.49
2022-12-08T23:48:19.555Z,2.48
2022-12-08T23:50:24.908Z,2.48
2022-12-08T23:52:29.959Z,2.48
2022-12-08T23:54:35.928Z,2.47
2022-12-08T23:56:40.834Z,2.46
2022-12-08T23:58:46.616Z,2.45
